sensor_id;sensor_type;location;lat;lon;timestamp;pressure;altitude;pressure_sealevel;temperature;humidity
59690;BME280;45557;50.298;18.930;2022-12-10T00:09:22;96927.54;;;0.42;89.66
59690;BME280;45557;50.298;18.930;2022-12-10T00:16:02;96931.96;;;0.39;89.74
59690;BME280;45557;50.298;18.930;2022-12-10T00:22:58;96935.75;;;0.43;90.01
59690;BME280;45557;50.298;18.930;2022-12-10T00:50:36;96931.65;;;0.32;90.55
59690;BME280;45557;50.298;18.930;2022-12-10T00:57:16;96931.70;;;0.27;90.70
59690;BME280;45557;50.298;18.930;2022-12-10T01:11:03;96944.00;;;0.28;90.70
59690;BME280;45557;50.298;18.930;2022-12-10T01:17:30;96949.56;;;0.29;90.76
59690;BME280;45557;50.298;18.930;2022-12-10T01:24:20;96947.16;;;0.30;90.59
59690;BME280;45557;50.298;18.930;2022-12-10T01:37:51;96956.86;;;0.30;90.75
59690;BME280;45557;50.298;18.930;2022-12-10T01:50:49;96969.23;;;0.32;90.61
59690;BME280;45557;50.298;18.930;2022-12-10T01:57:32;96967.33;;;0.32;90.50
59690;BME280;45557;50.298;18.930;2022-12-10T02:11:19;96962.95;;;0.33;90.79
59690;BME280;45557;50.298;18.930;2022-12-10T02:18:21;96966.13;;;0.31;90.73
59690;BME280;45557;50.298;18.930;2022-12-10T02:25:13;96999.05;;;0.35;90.73
59690;BME280;45557;50.298;18.930;2022-12-10T02:32:04;96999.20;;;0.31;90.55
59690;BME280;45557;50.298;18.930;2022-12-10T02:38:52;96997.33;;;0.33;90.75
59690;BME280;45557;50.298;18.930;2022-12-10T02:46:11;96992.46;;;0.40;90.73
59690;BME280;45557;50.298;18.930;2022-12-10T02:52:52;96982.92;;;0.40;90.48
59690;BME280;45557;50.298;18.930;2022-12-10T03:06:53;96985.64;;;0.41;90.28
59690;BME280;45557;50.298;18.930;2022-12-10T03:13:54;96989.92;;;0.44;90.06
59690;BME280;45557;50.298;18.930;2022-12-10T03:20:42;96996.84;;;0.44;90.15
59690;BME280;45557;50.298;18.930;2022-12-10T03:27:41;96995.22;;;0.45;89.65
59690;BME280;45557;50.298;18.930;2022-12-10T03:34:37;97002.35;;;0.46;90.14
59690;BME280;45557;50.298;18.930;2022-12-10T03:54:58;97032.01;;;0.44;89.83
59690;BME280;45557;50.298;18.930;2022-12-10T04:01:50;97037.30;;;0.34;90.07
59690;BME280;45557;50.298;18.930;2022-12-10T04:08:40;97019.35;;;0.32;90.25
59690;BME280;45557;50.298;18.930;2022-12-10T04:15:26;97033.88;;;0.34;90.19
59690;BME280;45557;50.298;18.930;2022-12-10T04:22:14;97046.64;;;0.36;89.94
59690;BME280;45557;50.298;18.930;2022-12-10T04:29:51;97052.06;;;0.37;90.30
59690;BME280;45557;50.298;18.930;2022-12-10T04:36:39;97061.19;;;0.34;89.77
59690;BME280;45557;50.298;18.930;2022-12-10T04:43:34;97067.77;;;0.33;90.13
59690;BME280;45557;50.298;18.930;2022-12-10T04:50:24;97074.12;;;0.33;89.95
59690;BME280;45557;50.298;18.930;2022-12-10T04:57:11;97077.98;;;0.32;89.73
59690;BME280;45557;50.298;18.930;2022-12-10T05:04:12;97086.64;;;0.28;89.54
59690;BME280;45557;50.298;18.930;2022-12-10T05:11:04;97087.10;;;0.32;89.91
59690;BME280;45557;50.298;18.930;2022-12-10T05:17:55;97089.42;;;0.30;89.59
59690;BME280;45557;50.298;18.930;2022-12-10T05:24:43;97098.21;;;0.32;89.41
59690;BME280;45557;50.298;18.930;2022-12-10T05:31:36;97108.23;;;0.35;89.47
59690;BME280;45557;50.298;18.930;2022-12-10T05:38:33;97097.80;;;0.39;89.08
59690;BME280;45557;50.298;18.930;2022-12-10T05:45:22;97103.80;;;0.44;89.31
59690;BME280;45557;50.298;18.930;2022-12-10T05:52:09;97090.73;;;0.39;89.20
59690;BME280;45557;50.298;18.930;2022-12-10T05:59:11;97095.73;;;0.37;89.20
59690;BME280;45557;50.298;18.930;2022-12-10T06:12:51;97065.59;;;0.22;89.95
59690;BME280;45557;50.298;18.930;2022-12-10T06:19:42;97068.02;;;0.12;90.23
59690;BME280;45557;50.298;18.930;2022-12-10T06:33:42;97112.02;;;0.31;90.07
59690;BME280;45557;50.298;18.930;2022-12-10T06:47:13;97148.04;;;0.46;89.28
59690;BME280;45557;50.298;18.930;2022-12-10T06:53:59;97149.29;;;0.53;88.88
59690;BME280;45557;50.298;18.930;2022-12-10T07:00:49;97162.12;;;0.53;88.61
59690;BME280;45557;50.298;18.930;2022-12-10T07:22:13;97158.10;;;0.61;87.79
59690;BME280;45557;50.298;18.930;2022-12-10T07:41:39;97174.35;;;0.50;87.97
59690;BME280;45557;50.298;18.930;2022-12-10T08:00:46;97210.50;;;0.53;88.30
59690;BME280;45557;50.298;18.930;2022-12-10T08:07:30;97199.91;;;0.46;88.63
59690;BME280;45557;50.298;18.930;2022-12-10T08:14:13;97188.09;;;0.48;88.62
59690;BME280;45557;50.298;18.930;2022-12-10T08:20:56;97186.38;;;0.43;88.43
59690;BME280;45557;50.298;18.930;2022-12-10T08:27:39;97183.52;;;0.37;88.65
59690;BME280;45557;50.298;18.930;2022-12-10T08:52:03;97190.30;;;0.28;90.00
59690;BME280;45557;50.298;18.930;2022-12-10T08:58:55;97200.34;;;0.31;90.13
59690;BME280;45557;50.298;18.930;2022-12-10T09:05:48;97196.08;;;0.37;89.95
59690;BME280;45557;50.298;18.930;2022-12-10T09:12:34;97204.46;;;0.46;89.55
59690;BME280;45557;50.298;18.930;2022-12-10T09:19:23;97190.85;;;0.52;89.33
59690;BME280;45557;50.298;18.930;2022-12-10T09:26:19;97180.73;;;0.54;88.60
59690;BME280;45557;50.298;18.930;2022-12-10T09:33:19;97178.55;;;0.51;88.72
59690;BME280;45557;50.298;18.930;2022-12-10T09:40:10;97180.77;;;0.46;88.41
59690;BME280;45557;50.298;18.930;2022-12-10T09:53:30;97164.73;;;0.51;89.08
59690;BME280;45557;50.298;18.930;2022-12-10T10:00:33;97167.87;;;0.48;88.48
59690;BME280;45557;50.298;18.930;2022-12-10T10:07:26;97163.58;;;0.48;88.82
59690;BME280;45557;50.298;18.930;2022-12-10T10:21:24;97173.77;;;0.58;89.05
59690;BME280;45557;50.298;18.930;2022-12-10T11:01:14;97158.27;;;0.77;87.35
59690;BME280;45557;50.298;18.930;2022-12-10T11:22:35;97162.15;;;0.64;87.39
59690;BME280;45557;50.298;18.930;2022-12-10T12:20:49;97165.02;;;0.72;87.73
59690;BME280;45557;50.298;18.930;2022-12-10T12:26:27;97163.56;;;0.68;87.95
59690;BME280;45557;50.298;18.930;2022-12-10T12:32:00;97158.42;;;0.64;87.74
59690;BME280;45557;50.298;18.930;2022-12-10T12:37:29;97150.68;;;0.59;88.09
59690;BME280;45557;50.298;18.930;2022-12-10T12:43:16;97150.95;;;0.64;88.27
59690;BME280;45557;50.298;18.930;2022-12-10T12:48:51;97155.76;;;0.80;88.43
59690;BME280;45557;50.298;18.930;2022-12-10T12:54:15;97156.30;;;0.91;88.06
59690;BME280;45557;50.298;18.930;2022-12-10T13:05:40;97172.27;;;0.96;87.24
59690;BME280;45557;50.298;18.930;2022-12-10T13:22:12;97157.55;;;0.85;86.66
59690;BME280;45557;50.298;18.930;2022-12-10T13:27:38;97164.39;;;0.72;87.06
59690;BME280;45557;50.298;18.930;2022-12-10T13:33:19;97172.55;;;0.68;87.54
59690;BME280;45557;50.298;18.930;2022-12-10T13:38:55;97175.16;;;0.60;87.87
59690;BME280;45557;50.298;18.930;2022-12-10T13:44:47;97166.32;;;0.62;88.39
59690;BME280;45557;50.298;18.930;2022-12-10T13:50:18;97183.84;;;0.67;88.23
59690;BME280;45557;50.298;18.930;2022-12-10T14:01:53;97207.76;;;0.61;87.82
59690;BME280;45557;50.298;18.930;2022-12-10T14:07:42;97213.39;;;0.65;88.29
59690;BME280;45557;50.298;18.930;2022-12-10T14:13:05;97206.45;;;0.66;88.27
59690;BME280;45557;50.298;18.930;2022-12-10T14:18:56;97205.91;;;0.59;88.28
59690;BME280;45557;50.298;18.930;2022-12-10T14:25:11;97205.64;;;0.65;88.45
59690;BME280;45557;50.298;18.930;2022-12-10T14:31:51;97204.51;;;0.61;88.45
59690;BME280;45557;50.298;18.930;2022-12-10T14:38:25;97213.85;;;0.55;89.04
59690;BME280;45557;50.298;18.930;2022-12-10T14:44:11;97213.30;;;0.62;89.01
59690;BME280;45557;50.298;18.930;2022-12-10T14:49:41;97217.34;;;0.65;88.40
59690;BME280;45557;50.298;18.930;2022-12-10T14:55:04;97229.80;;;0.63;88.40
59690;BME280;45557;50.298;18.930;2022-12-10T15:00:27;97233.65;;;0.64;88.35
59690;BME280;45557;50.298;18.930;2022-12-10T15:06:16;97222.55;;;0.66;88.26
59690;BME280;45557;50.298;18.930;2022-12-10T15:13:06;97219.31;;;0.52;88.53
59690;BME280;45557;50.298;18.930;2022-12-10T15:31:31;97203.98;;;0.34;88.99
59690;BME280;45557;50.298;18.930;2022-12-10T15:36:56;97212.97;;;0.46;89.03
59690;BME280;45557;50.298;18.930;2022-12-10T15:42:48;97219.92;;;0.60;88.82
59690;BME280;45557;50.298;18.930;2022-12-10T15:55:37;97215.47;;;0.63;88.01
59690;BME280;45557;50.298;18.930;2022-12-10T16:02:02;97204.51;;;0.61;87.07
59690;BME280;45557;50.298;18.930;2022-12-10T16:08:29;97210.50;;;0.49;87.38
59690;BME280;45557;50.298;18.930;2022-12-10T16:13:55;97211.76;;;0.39;87.49
59690;BME280;45557;50.298;18.930;2022-12-10T16:19:18;97208.21;;;0.36;88.02
59690;BME280;45557;50.298;18.930;2022-12-10T16:25:00;97211.25;;;0.29;87.95
59690;BME280;45557;50.298;18.930;2022-12-10T16:31:43;97216.52;;;0.31;88.57
59690;BME280;45557;50.298;18.930;2022-12-10T16:38:06;97208.25;;;0.43;88.02
59690;BME280;45557;50.298;18.930;2022-12-10T16:43:31;97206.54;;;0.43;87.69
59690;BME280;45557;50.298;18.930;2022-12-10T16:48:54;97204.55;;;0.42;87.82
59690;BME280;45557;50.298;18.930;2022-12-10T16:54:15;97201.52;;;0.41;87.89
59690;BME280;45557;50.298;18.930;2022-12-10T16:59:37;97197.64;;;0.40;87.42
59690;BME280;45557;50.298;18.930;2022-12-10T17:04:59;97191.59;;;0.36;87.56
59690;BME280;45557;50.298;18.930;2022-12-10T17:10:44;97183.86;;;0.40;88.23
59690;BME280;45557;50.298;18.930;2022-12-10T17:17:09;97190.06;;;0.51;87.68
59690;BME280;45557;50.298;18.930;2022-12-10T17:23:13;97199.64;;;0.48;87.45
59690;BME280;45557;50.298;18.930;2022-12-10T17:29:36;97201.85;;;0.49;87.72
59690;BME280;45557;50.298;18.930;2022-12-10T17:36:18;97206.14;;;0.55;87.69
59690;BME280;45557;50.298;18.930;2022-12-10T17:41:48;97215.58;;;0.47;86.98
59690;BME280;45557;50.298;18.930;2022-12-10T17:47:40;97216.94;;;0.40;87.68
59690;BME280;45557;50.298;18.930;2022-12-10T18:12:08;97201.20;;;0.32;88.00
59690;BME280;45557;50.298;18.930;2022-12-10T18:17:51;97199.63;;;0.25;88.17
59690;BME280;45557;50.298;18.930;2022-12-10T18:23:15;97194.50;;;0.24;88.84
59690;BME280;45557;50.298;18.930;2022-12-10T18:35:49;97200.27;;;0.18;88.79
59690;BME280;45557;50.298;18.930;2022-12-10T18:41:33;97197.52;;;0.09;88.99
59690;BME280;45557;50.298;18.930;2022-12-10T18:47:56;97201.23;;;0.09;89.91
59690;BME280;45557;50.298;18.930;2022-12-10T18:53:43;97201.98;;;0.06;89.95
59690;BME280;45557;50.298;18.930;2022-12-10T18:59:13;97201.54;;;0.05;89.63
59690;BME280;45557;50.298;18.930;2022-12-10T19:04:36;97191.92;;;0.04;90.34
59690;BME280;45557;50.298;18.930;2022-12-10T19:09:59;97192.27;;;0.02;90.28
59690;BME280;45557;50.298;18.930;2022-12-10T19:15:43;97185.35;;;0.05;89.89
59690;BME280;45557;50.298;18.930;2022-12-10T19:21:08;97187.72;;;0.13;90.03
59690;BME280;45557;50.298;18.930;2022-12-10T19:26:35;97189.59;;;0.18;90.15
59690;BME280;45557;50.298;18.930;2022-12-10T19:31:59;97180.88;;;0.14;89.79
59690;BME280;45557;50.298;18.930;2022-12-10T19:37:27;97187.15;;;0.14;89.84
59690;BME280;45557;50.298;18.930;2022-12-10T19:42:53;97188.91;;;0.13;89.66
59690;BME280;45557;50.298;18.930;2022-12-10T19:48:18;97195.98;;;0.09;89.91
59690;BME280;45557;50.298;18.930;2022-12-10T19:53:43;97206.85;;;0.13;89.69
59690;BME280;45557;50.298;18.930;2022-12-10T19:59:38;97193.20;;;0.13;89.35
59690;BME280;45557;50.298;18.930;2022-12-10T20:06:04;97193.17;;;0.02;90.38
59690;BME280;45557;50.298;18.930;2022-12-10T20:12:27;97188.01;;;-0.07;90.06
59690;BME280;45557;50.298;18.930;2022-12-10T20:17:51;97179.98;;;-0.10;90.56
59690;BME280;45557;50.298;18.930;2022-12-10T20:23:13;97169.31;;;-0.16;90.37
59690;BME280;45557;50.298;18.930;2022-12-10T20:28:40;97173.23;;;-0.16;90.65
59690;BME280;45557;50.298;18.930;2022-12-10T20:34:07;97168.89;;;-0.14;90.52
59690;BME280;45557;50.298;18.930;2022-12-10T20:39:32;97163.71;;;-0.09;90.50
59690;BME280;45557;50.298;18.930;2022-12-10T20:45:07;97165.52;;;-0.04;90.48
59690;BME280;45557;50.298;18.930;2022-12-10T20:58:21;97155.71;;;0.08;89.40
59690;BME280;45557;50.298;18.930;2022-12-10T21:04:52;97153.23;;;0.04;89.01
59690;BME280;45557;50.298;18.930;2022-12-10T21:11:24;97141.71;;;0.05;88.88
59690;BME280;45557;50.298;18.930;2022-12-10T21:17:06;97140.84;;;0.02;89.09
59690;BME280;45557;50.298;18.930;2022-12-10T21:23:49;97151.45;;;0.03;88.90
59690;BME280;45557;50.298;18.930;2022-12-10T21:30:32;97145.89;;;0.07;89.06
59690;BME280;45557;50.298;18.930;2022-12-10T21:42:57;97159.13;;;-0.11;89.44
59690;BME280;45557;50.298;18.930;2022-12-10T21:49:47;97158.07;;;-0.29;90.15
59690;BME280;45557;50.298;18.930;2022-12-10T22:14:50;97142.97;;;-0.50;91.60
59690;BME280;45557;50.298;18.930;2022-12-10T22:27:37;97131.17;;;-0.52;91.53
59690;BME280;45557;50.298;18.930;2022-12-10T22:46:51;97124.13;;;-0.61;91.69
59690;BME280;45557;50.298;18.930;2022-12-10T22:53:39;97136.35;;;-0.30;95.14
59690;BME280;45557;50.298;18.930;2022-12-10T23:00:00;97127.90;;;-0.08;91.67
